Time;durP1;ratioP1;P1;durP2;ratioP2;P2;SDS_P1;SDS_P2;PMS_P1;PMS_P2;Temp;Humidity;BMP_temperature;BMP_pressure;BME280_temperature;BME280_humidity;BME280_pressure;Samples;Min_cycle;Max_cycle;Signal;HPM_P1;HPM_P2
2023/09/04 06:55:39;;;;;;;5.60;4.20;;;;;;;18.21;78.66;97537.72;2098649;27;20585;-73
2023/09/04 06:58:03;;;;;;;9.85;4.15;;;;;;;18.57;78.55;97536.34;2088415;27;20570;-73
2023/09/04 06:59:05;;;;;;;5.40;3.88;;;;;;;18.66;76.84;97539.38;2080142;28;20189;-73
2023/09/04 07:00:08;;;;;;;6.88;4.00;;;;;;;19.07;76.14;97534.09;2079601;28;20649;-73
2023/09/04 07:01:10;;;;;;;5.68;3.65;;;;;;;19.01;75.73;97538.94;2079316;28;20196;-73
2023/09/04 07:02:11;;;;;;;8.52;4.00;;;;;;;18.89;76.49;97538.75;2080301;28;20332;-73
2023/09/04 07:03:13;;;;;;;7.88;4.10;;;;;;;19.05;75.82;97535.16;2080505;28;20232;-73
2023/09/04 07:04:14;;;;;;;5.95;3.92;;;;;;;19.07;75.60;97538.53;2080796;28;20201;-73
2023/09/04 07:05:17;;;;;;;6.72;3.75;;;;;;;19.30;75.46;97538.81;2079831;28;20197;-73
2023/09/04 07:06:18;;;;;;;15.00;4.03;;;;;;;19.34;74.84;97535.88;2083164;28;20598;-73
2023/09/04 07:07:19;;;;;;;7.28;3.83;;;;;;;18.89;75.34;97524.66;2081987;28;20251;-73
2023/09/04 07:08:21;;;;;;;6.50;3.75;;;;;;;19.15;75.69;97530.94;2081921;28;20228;-73
2023/09/04 07:09:23;;;;;;;5.60;3.72;;;;;;;19.33;75.50;97534.19;2080869;28;20819;-73
2023/09/04 07:10:24;;;;;;;6.32;3.97;;;;;;;19.99;72.64;97534.19;2074963;28;20223;-73
2023/09/04 07:11:26;;;;;;;12.88;3.95;;;;;;;19.39;74.28;97536.41;2077512;28;20637;-75
2023/09/04 07:12:27;;;;;;;4.82;3.50;;;;;;;19.95;72.81;97538.03;2080857;28;20238;-75
2023/09/04 07:13:28;;;;;;;6.32;3.40;;;;;;;19.91;72.99;97539.19;2075352;28;20224;-75
2023/09/04 07:14:31;;;;;;;9.48;3.80;;;;;;;20.30;71.97;97529.44;2078715;28;20284;-75
2023/09/04 07:15:32;;;;;;;28.45;3.92;;;;;;;20.38;72.24;97532.38;2076273;28;20747;-75
2023/09/04 07:16:37;;;;;;;10.93;3.50;;;;;;;20.19;73.12;97535.47;2076871;28;20205;-76
2023/09/04 07:17:50;;;;;;;10.48;3.80;;;;;;;20.17;72.30;97536.53;2078587;28;20244;-74
2023/09/04 07:18:52;;;;;;;8.13;4.03;;;;;;;20.45;71.61;97526.66;2080699;28;20228;-74
2023/09/04 07:19:53;;;;;;;9.43;3.42;;;;;;;20.90;70.97;97531.44;2083889;28;20209;-72
2023/09/04 07:20:55;;;;;;;10.85;3.70;;;;;;;20.87;69.66;97538.69;2084145;28;20196;-70
2023/09/04 07:21:56;;;;;;;5.25;3.15;;;;;;;20.70;70.28;97536.34;2080332;28;20205;-69
2023/09/04 07:22:58;;;;;;;5.70;2.53;;;;;;;20.82;69.26;97539.94;2077892;28;21233;-70
2023/09/04 07:24:19;;;;;;;7.18;3.78;;;;;;;20.80;69.36;97541.88;2080925;28;20625;-70
2023/09/04 07:25:21;;;;;;;10.85;4.32;;;;;;;20.73;70.07;97538.81;2081880;28;20432;-70
2023/09/04 07:26:22;;;;;;;9.32;3.45;;;;;;;21.17;68.66;97529.41;2079594;28;20209;-69
2023/09/04 07:27:25;;;;;;;8.48;3.85;;;;;;;21.22;69.12;97534.38;2079087;28;20197;-68
2023/09/04 07:28:27;;;;;;;7.18;3.80;;;;;;;21.16;68.49;97534.84;2078576;28;20235;-68
2023/09/04 07:29:28;;;;;;;5.45;3.40;;;;;;;21.03;68.19;97537.56;2082374;28;20215;-68
2023/09/04 07:30:29;;;;;;;6.40;3.35;;;;;;;21.52;67.53;97520.63;2080174;28;20197;-68
2023/09/04 07:31:31;;;;;;;5.40;3.92;;;;;;;21.45;67.31;97532.66;2080985;28;20201;-67
2023/09/04 07:32:33;;;;;;;5.50;3.10;;;;;;;21.27;68.23;97526.06;2079377;28;20209;-68
2023/09/04 07:33:34;;;;;;;4.00;2.83;;;;;;;21.41;68.19;97527.69;2079470;28;20217;-68
2023/09/04 07:34:36;;;;;;;4.63;3.30;;;;;;;21.40;67.69;97520.72;2082596;28;20235;-68
2023/09/04 07:35:37;;;;;;;11.85;3.08;;;;;;;21.91;66.20;97522.19;2077001;28;20228;-67
2023/09/04 07:36:39;;;;;;;6.10;3.03;;;;;;;22.14;65.32;97520.41;2083910;28;20687;-67
2023/09/04 07:37:40;;;;;;;5.43;2.85;;;;;;;21.76;66.24;97519.72;2089714;28;20687;-67
2023/09/04 07:38:43;;;;;;;7.28;3.70;;;;;;;22.46;64.89;97530.34;2081365;28;20212;-66
2023/09/04 07:39:44;;;;;;;4.13;3.38;;;;;;;21.93;65.56;97531.75;2079274;28;20251;-67
2023/09/04 07:40:46;;;;;;;4.95;2.50;;;;;;;21.45;67.44;97537.97;2077836;28;20201;-66
2023/09/04 07:41:47;;;;;;;10.18;4.70;;;;;;;21.23;67.50;97527.25;2080194;28;20197;-67
2023/09/04 07:42:49;;;;;;;4.68;3.15;;;;;;;21.65;66.98;97528.53;2080102;28;20240;-66
2023/09/04 07:43:51;;;;;;;5.63;3.13;;;;;;;21.57;66.95;97525.59;2079549;28;20209;-66
2023/09/04 07:44:52;;;;;;;3.40;2.58;;;;;;;21.87;67.17;97532.22;2079521;28;20284;-67
2023/09/04 07:45:54;;;;;;;6.95;3.40;;;;;;;22.46;65.46;97533.00;2079293;28;20283;-67
2023/09/04 07:46:56;;;;;;;12.00;3.78;;;;;;;22.82;63.49;97525.72;2082454;28;20201;-67
2023/09/04 07:47:57;;;;;;;6.45;3.70;;;;;;;23.29;62.02;97533.50;2079729;28;20258;-66
2023/09/04 07:48:59;;;;;;;6.55;3.88;;;;;;;21.90;64.63;97531.13;2080569;28;20266;-67
2023/09/04 07:50:00;;;;;;;9.82;3.20;;;;;;;21.93;65.88;97533.53;2080568;28;20188;-66
2023/09/04 07:51:05;;;;;;;10.77;3.67;;;;;;;22.09;65.89;97518.09;2078727;28;20650;-67
2023/09/04 07:52:20;;;;;;;6.90;3.58;;;;;;;22.09;66.23;97536.69;2082027;28;20681;-67
2023/09/04 07:53:23;;;;;;;6.03;3.13;;;;;;;22.79;64.12;97521.50;2081924;28;20232;-66
2023/09/04 07:54:25;;;;;;;4.97;3.10;;;;;;;22.30;64.30;97528.03;2081601;28;20202;-66
2023/09/04 07:55:26;;;;;;;6.40;2.80;;;;;;;21.97;65.05;97530.53;2079775;28;20263;-66
2023/09/04 07:56:28;;;;;;;5.30;3.47;;;;;;;22.63;64.09;97529.03;2077235;28;20243;-66
2023/09/04 07:57:43;;;;;;;6.70;3.42;;;;;;;22.66;63.36;97532.28;2076776;28;20754;-67
2023/09/04 07:58:44;;;;;;;6.00;3.10;;;;;;;22.73;62.97;97526.44;2083329;28;20222;-66
2023/09/04 07:59:46;;;;;;;6.93;3.70;;;;;;;22.50;63.40;97531.81;2082909;28;20213;-66
2023/09/04 08:00:49;;;;;;;6.20;3.65;;;;;;;22.01;64.99;97531.16;2079995;28;20303;-67
2023/09/04 08:01:50;;;;;;;8.25;3.20;;;;;;;22.71;63.87;97526.56;2080239;28;20201;-66
2023/09/04 08:02:52;;;;;;;5.10;3.00;;;;;;;22.79;63.17;97526.81;2082877;28;20246;-67
2023/09/04 08:03:53;;;;;;;4.63;3.55;;;;;;;22.77;63.50;97536.75;2079954;28;20778;-66
2023/09/04 08:04:55;;;;;;;8.57;3.40;;;;;;;22.68;63.75;97532.16;2079267;28;20209;-66
2023/09/04 08:05:56;;;;;;;8.07;3.03;;;;;;;22.65;64.37;97538.56;2077945;28;20198;-66
2023/09/04 08:06:58;;;;;;;6.70;3.55;;;;;;;22.54;63.64;97535.91;2077436;28;20189;-66
2023/09/04 08:07:59;;;;;;;6.43;3.67;;;;;;;22.55;64.71;97534.97;2078925;28;20242;-66
2023/09/04 08:09:01;;;;;;;10.95;3.25;;;;;;;22.55;65.36;97532.31;2075694;28;20194;-66
2023/09/04 08:10:03;;;;;;;5.00;3.10;;;;;;;22.78;65.11;97541.09;2075013;28;20598;-66
2023/09/04 08:11:04;;;;;;;6.38;3.10;;;;;;;22.56;64.63;97536.63;2076053;28;20622;-67
2023/09/04 08:12:06;;;;;;;9.77;3.55;;;;;;;22.86;63.91;97537.81;2072745;28;20197;-66
2023/09/04 08:13:09;;;;;;;5.80;3.10;;;;;;;23.51;62.35;97539.69;2072077;28;20243;-66
2023/09/04 08:14:14;;;;;;;7.38;3.13;;;;;;;23.87;60.97;97530.44;2070665;28;20296;-66
2023/09/04 08:15:16;;;;;;;5.40;2.55;;;;;;;24.00;60.50;97535.59;2070192;28;20897;-66
2023/09/04 08:16:17;;;;;;;14.48;3.13;;;;;;;23.44;61.53;97536.72;2069662;28;20760;-66
2023/09/04 08:17:19;;;;;;;6.53;3.35;;;;;;;22.77;63.73;97535.91;2070124;28;20248;-66
2023/09/04 08:18:20;;;;;;;7.55;3.30;;;;;;;23.46;62.10;97542.75;2072625;28;20283;-66
2023/09/04 08:19:22;;;;;;;7.10;3.22;;;;;;;22.83;63.56;97544.22;2075654;28;20204;-66
2023/09/04 08:20:23;;;;;;;5.72;3.55;;;;;;;22.76;63.14;97540.38;2074231;28;20555;-66
2023/09/04 08:21:25;;;;;;;9.18;3.28;;;;;;;22.82;62.77;97539.03;2073665;28;20202;-67
2023/09/04 08:22:26;;;;;;;4.57;3.10;;;;;;;23.46;61.59;97535.63;2072430;28;20673;-67
2023/09/04 08:23:28;;;;;;;4.30;3.00;;;;;;;23.20;61.31;97539.56;2070462;28;20218;-66
2023/09/04 08:24:29;;;;;;;5.03;3.30;;;;;;;23.56;60.97;97535.66;2068225;28;20225;-67
2023/09/04 08:25:31;;;;;;;4.13;3.17;;;;;;;22.84;61.65;97537.06;2067495;28;20297;-66
2023/09/04 08:26:36;;;;;;;6.53;3.75;;;;;;;22.20;63.00;97535.06;2067257;28;20225;-66
2023/09/04 08:27:40;;;;;;;6.18;3.60;;;;;;;21.82;64.55;97537.03;2075441;28;20201;-66
2023/09/04 08:28:42;;;;;;;7.25;3.00;;;;;;;21.41;66.26;97536.53;2081915;28;20286;-66
2023/09/04 08:29:44;;;;;;;5.75;3.33;;;;;;;21.90;64.90;97531.97;2084423;28;20201;-66
2023/09/04 08:30:45;;;;;;;9.88;3.13;;;;;;;21.45;65.73;97531.84;2083973;28;20651;-66
2023/09/04 08:31:47;;;;;;;5.82;3.05;;;;;;;21.77;65.64;97520.59;2081890;28;20205;-66
2023/09/04 08:32:49;;;;;;;8.68;3.35;;;;;;;21.14;66.84;97528.78;2081559;28;20201;-66
2023/09/04 08:33:50;;;;;;;7.60;4.05;;;;;;;21.39;65.78;97533.13;2082365;28;20237;-66
2023/09/04 08:34:52;;;;;;;6.78;3.40;;;;;;;21.35;66.30;97521.88;2082152;28;20201;-66
2023/09/04 08:35:53;;;;;;;5.13;3.25;;;;;;;21.34;66.33;97532.63;2078178;28;20212;-66
2023/09/04 08:36:54;;;;;;;4.20;2.90;;;;;;;21.52;66.26;97530.38;2080850;28;20216;-66
2023/09/04 08:37:57;;;;;;;4.90;3.00;;;;;;;21.84;65.38;97516.50;2082358;28;20188;-66
2023/09/04 08:38:58;;;;;;;8.32;3.35;;;;;;;22.05;64.86;97529.09;2083466;28;20200;-65
2023/09/04 08:40:01;;;;;;;6.55;3.25;;;;;;;21.89;65.01;97527.63;2083389;28;20288;-65
2023/09/04 08:41:06;;;;;;;18.95;3.65;;;;;;;22.43;64.48;97522.63;2084225;28;20530;-66
2023/09/04 08:42:08;;;;;;;14.00;3.83;;;;;;;22.26;65.09;97522.09;2085921;28;20223;-66
2023/09/04 08:43:10;;;;;;;8.40;3.25;;;;;;;22.26;64.10;97522.09;2082266;28;20222;-66
2023/09/04 08:44:13;;;;;;;8.30;3.85;;;;;;;22.15;64.99;97516.78;2078793;28;20427;-66
2023/09/04 08:45:17;;;;;;;8.90;3.70;;;;;;;21.89;64.13;97524.97;2079109;28;20288;-66
2023/09/04 08:46:20;;;;;;;8.18;3.70;;;;;;;22.04;64.59;97528.25;2084972;28;20232;-66
2023/09/04 08:47:22;;;;;;;16.40;3.38;;;;;;;22.83;62.61;97522.09;2083886;28;20189;-67
2023/09/04 08:48:27;;;;;;;6.00;3.28;;;;;;;22.54;62.38;97519.97;2082156;28;20225;-66
2023/09/04 08:49:29;;;;;;;5.13;3.10;;;;;;;22.20;62.88;97529.72;2081480;28;20689;-66
2023/09/04 08:50:30;;;;;;;5.75;2.70;;;;;;;22.06;62.93;97528.16;2080232;28;20244;-66
2023/09/04 08:51:32;;;;;;;7.55;2.75;;;;;;;22.17;62.93;97517.53;2083337;28;20204;-66
2023/09/04 08:52:37;;;;;;;4.72;2.80;;;;;;;22.43;62.17;97526.13;2084742;28;20193;-66
2023/09/04 08:53:38;;;;;;;4.47;2.95;;;;;;;22.17;61.62;97526.34;2089070;28;20223;-66
2023/09/04 08:54:43;;;;;;;7.55;3.05;;;;;;;22.13;62.80;97518.69;2084725;28;20982;-65
2023/09/04 08:55:44;;;;;;;5.43;3.42;;;;;;;22.44;61.82;97519.84;2083623;28;20266;-66
2023/09/04 08:56:46;;;;;;;6.82;3.25;;;;;;;22.55;61.27;97526.97;2079656;28;20687;-66
2023/09/04 08:57:48;;;;;;;5.70;2.97;;;;;;;21.89;62.05;97529.44;2084680;28;20232;-66
2023/09/04 08:58:49;;;;;;;7.07;2.60;;;;;;;21.70;63.33;97520.22;2085560;28;20235;-66
2023/09/04 08:59:51;;;;;;;5.85;2.78;;;;;;;22.04;62.47;97511.44;2080142;28;20611;-66
2023/09/04 09:00:52;;;;;;;5.43;3.50;;;;;;;22.40;61.41;97518.41;2080183;28;20202;-66
2023/09/04 09:01:56;;;;;;;7.78;2.90;;;;;;;22.18;62.47;97520.06;2078207;28;20266;-66
2023/09/04 09:02:58;;;;;;;7.00;2.75;;;;;;;22.35;60.53;97516.06;2078613;28;20289;-66
2023/09/04 09:04:05;;;;;;;3.88;2.70;;;;;;;22.01;61.31;97521.34;2082032;28;20293;-66
2023/09/04 09:05:07;;;;;;;5.93;2.50;;;;;;;22.26;60.75;97516.78;2082743;28;20916;-66
2023/09/04 09:06:10;;;;;;;3.83;2.80;;;;;;;21.99;60.87;97520.66;2083840;28;20279;-66
2023/09/04 09:07:13;;;;;;;5.00;2.80;;;;;;;22.04;60.70;97514.13;2082572;28;20546;-66
2023/09/04 09:08:19;;;;;;;5.00;3.00;;;;;;;21.60;62.01;97519.22;2082769;28;20224;-66
2023/09/04 09:09:20;;;;;;;7.68;3.03;;;;;;;22.10;61.13;97519.78;2084762;28;20197;-66
2023/09/04 09:10:22;;;;;;;9.90;2.70;;;;;;;22.56;60.46;97515.34;2078701;28;20232;-65
2023/09/04 09:11:24;;;;;;;3.40;2.60;;;;;;;22.77;59.56;97518.09;2076144;28;20267;-66
2023/09/04 09:12:25;;;;;;;6.13;2.80;;;;;;;22.81;57.90;97513.38;2082727;28;20239;-65
2023/09/04 09:13:26;;;;;;;9.25;3.40;;;;;;;22.77;58.82;97523.44;2082227;28;20224;-66
2023/09/04 09:14:28;;;;;;;6.07;2.78;;;;;;;22.47;59.02;97524.06;2083320;28;20209;-66
2023/09/04 09:15:31;;;;;;;7.03;2.60;;;;;;;22.43;59.63;97517.31;2083492;28;20604;-66
2023/09/04 09:16:32;;;;;;;7.65;2.67;;;;;;;22.77;58.22;97515.44;2080026;28;20201;-66
2023/09/04 09:17:34;;;;;;;6.22;2.65;;;;;;;22.83;57.79;97522.09;2078018;28;20704;-65
2023/09/04 09:18:37;;;;;;;6.20;3.60;;;;;;;22.38;57.20;97522.13;2081778;28;20221;-65
2023/09/04 09:19:39;;;;;;;6.35;2.00;;;;;;;22.76;57.68;97529.72;2083287;28;20558;-66
2023/09/04 09:20:42;;;;;;;4.38;2.67;;;;;;;22.67;57.35;97518.00;2085124;28;20329;-65
2023/09/04 09:21:44;;;;;;;5.63;2.80;;;;;;;22.58;57.67;97526.72;2084365;28;20241;-65
2023/09/04 09:22:51;;;;;;;3.50;2.20;;;;;;;22.48;58.02;97525.75;2082246;28;20224;-66
2023/09/04 09:24:08;;;;;;;4.93;2.90;;;;;;;22.57;56.83;97519.69;2084250;28;20559;-65
2023/09/04 09:25:16;;;;;;;4.63;2.88;;;;;;;22.69;56.38;97517.03;2074835;28;20706;-65
2023/09/04 09:26:17;;;;;;;6.40;2.50;;;;;;;22.44;56.85;97525.16;2075590;28;20208;-66
2023/09/04 09:27:23;;;;;;;4.40;2.70;;;;;;;22.59;55.36;97522.22;2079968;28;20282;-66
2023/09/04 09:28:26;;;;;;;4.32;2.17;;;;;;;22.51;54.65;97517.53;2081708;28;20311;-66
2023/09/04 09:29:29;;;;;;;5.18;3.05;;;;;;;22.46;55.96;97520.56;2080536;28;20649;-66
2023/09/04 09:30:38;;;;;;;7.70;2.97;;;;;;;23.00;55.51;97518.88;2081434;28;20288;-67
2023/09/04 09:31:42;;;;;;;4.88;2.90;;;;;;;22.80;55.64;97517.88;2078514;28;20632;-66
2023/09/04 09:32:44;;;;;;;3.85;2.40;;;;;;;22.41;55.83;97524.53;2078894;28;20721;-67
2023/09/04 09:33:48;;;;;;;6.90;2.20;;;;;;;22.47;57.00;97511.63;2078440;28;20198;-67
2023/09/04 09:34:54;;;;;;;12.25;2.80;;;;;;;22.29;57.16;97513.03;2078737;28;20230;-67
2023/09/04 09:35:56;;;;;;;4.38;2.90;;;;;;;22.22;56.95;97511.81;2088970;28;20200;-67
2023/09/04 09:36:58;;;;;;;3.88;2.75;;;;;;;22.12;58.29;97530.34;2087115;28;20193;-68
2023/09/04 09:38:01;;;;;;;5.70;3.22;;;;;;;22.07;58.14;97513.84;2079113;28;20221;-67
2023/09/04 09:39:04;;;;;;;4.40;2.55;;;;;;;22.02;57.82;97515.06;2083405;28;20213;-68
2023/09/04 09:40:08;;;;;;;5.20;2.53;;;;;;;22.31;56.02;97519.09;2083980;28;20655;-67
2023/09/04 09:41:12;;;;;;;4.63;2.80;;;;;;;22.70;56.31;97521.38;2083469;28;20193;-67
2023/09/04 09:42:14;;;;;;;5.65;2.85;;;;;;;22.89;56.68;97518.91;2082585;28;20215;-67
2023/09/04 09:43:15;;;;;;;10.50;2.80;;;;;;;23.13;56.89;97513.44;2078842;28;20863;-67
2023/09/04 09:44:17;;;;;;;3.90;2.22;;;;;;;24.43;54.42;97502.50;2077982;28;20193;-67
2023/09/04 09:45:19;;;;;;;10.45;3.55;;;;;;;24.14;52.97;97505.06;2080596;28;20284;-67
2023/09/04 09:46:21;;;;;;;8.60;3.28;;;;;;;24.37;53.43;97510.22;2080770;28;20233;-68
2023/09/04 09:47:22;;;;;;;6.50;2.60;;;;;;;23.88;52.60;97510.75;2083563;28;20288;-69
2023/09/04 09:48:25;;;;;;;10.13;2.85;;;;;;;24.65;52.59;97508.66;2080745;28;20237;-67
2023/09/04 09:49:29;;;;;;;4.75;2.72;;;;;;;24.18;52.84;97511.81;2083149;28;20192;-67
2023/09/04 09:50:32;;;;;;;10.02;2.28;;;;;;;24.19;52.17;97501.97;2082261;28;20193;-68
2023/09/04 09:51:35;;;;;;;6.78;3.00;;;;;;;24.36;51.96;97501.34;2082736;28;20201;-67
2023/09/04 09:52:37;;;;;;;5.10;2.50;;;;;;;24.67;51.61;97503.16;2082768;28;20794;-68
2023/09/04 09:53:48;;;;;;;7.85;2.97;;;;;;;24.98;51.48;97497.75;2079977;28;20228;-67
2023/09/04 09:54:50;;;;;;;7.15;2.22;;;;;;;25.84;50.38;97503.25;2082577;28;20287;-67
2023/09/04 09:55:52;;;;;;;5.22;2.78;;;;;;;25.28;49.54;97494.13;2083338;28;20250;-67
2023/09/04 09:56:54;;;;;;;7.38;2.30;;;;;;;24.32;50.17;97501.75;2081329;28;20215;-67
2023/09/04 09:57:57;;;;;;;3.67;2.00;;;;;;;24.07;51.17;97485.22;2080661;28;20280;-68
2023/09/04 09:58:59;;;;;;;5.82;2.00;;;;;;;24.30;50.68;97499.22;2080367;28;20197;-67
2023/09/04 10:00:01;;;;;;;3.40;2.00;;;;;;;24.37;51.29;97502.22;2081076;28;20213;-67
2023/09/04 10:01:02;;;;;;;3.90;2.25;;;;;;;24.22;50.77;97504.38;2080964;28;20200;-67
2023/09/04 10:02:05;;;;;;;3.28;1.88;;;;;;;24.44;51.25;97495.31;2083189;28;20234;-67
2023/09/04 10:03:07;;;;;;;9.27;2.28;;;;;;;24.45;50.30;97500.56;2081596;28;20816;-67
2023/09/04 10:04:09;;;;;;;7.30;2.47;;;;;;;24.08;51.44;97501.06;2077848;28;20544;-67
2023/09/04 10:05:10;;;;;;;3.80;2.30;;;;;;;24.94;50.93;97505.19;2083679;28;20623;-68
2023/09/04 10:06:17;;;;;;;4.00;2.38;;;;;;;24.51;49.77;97507.16;2083984;28;20639;-67
2023/09/04 10:07:27;;;;;;;5.10;2.30;;;;;;;24.11;50.96;97492.81;2081197;28;20284;-67
2023/09/04 10:08:33;;;;;;;5.05;2.60;;;;;;;24.01;51.29;97504.41;2078775;28;20228;-67
2023/09/04 10:09:39;;;;;;;4.80;2.70;;;;;;;24.37;50.15;97502.22;2080466;28;20222;-67
2023/09/04 10:10:43;;;;;;;4.13;2.40;;;;;;;24.42;51.45;97499.97;2080917;28;20696;-67
2023/09/04 10:11:46;;;;;;;6.38;3.08;;;;;;;24.79;50.70;97499.41;2077477;28;20201;-67
2023/09/04 10:13:15;;;;;;;4.00;2.20;;;;;;;26.17;49.10;97490.38;2074172;28;20537;-67
2023/09/04 10:14:25;;;;;;;5.22;2.60;;;;;;;26.11;48.14;97488.28;2084092;28;20196;-67
2023/09/04 10:15:28;;;;;;;5.38;2.95;;;;;;;27.23;45.55;97494.44;2081141;28;20192;-67
2023/09/04 10:16:36;;;;;;;4.57;2.45;;;;;;;26.92;45.30;97496.63;2078071;28;20209;-67
2023/09/04 10:17:50;;;;;;;5.10;2.17;;;;;;;25.93;46.12;97488.16;2082537;28;20200;-67
2023/09/04 10:18:53;;;;;;;6.18;2.35;;;;;;;26.01;47.40;97485.59;2081394;28;20307;-67
2023/09/04 10:19:57;;;;;;;5.53;2.80;;;;;;;26.81;46.45;97477.09;2082568;28;20223;-67
2023/09/04 10:21:05;;;;;;;9.35;2.53;;;;;;;27.60;45.63;97487.25;2082246;28;20232;-67
2023/09/04 10:22:12;;;;;;;4.57;2.90;;;;;;;27.22;44.16;97498.09;2079988;28;20563;-67
2023/09/04 10:23:21;;;;;;;6.00;1.83;;;;;;;25.26;47.00;97488.06;2080048;28;20703;-67
2023/09/04 10:24:35;;;;;;;3.78;2.42;;;;;;;25.38;47.88;97489.66;2080580;28;20259;-68
2023/09/04 10:25:53;;;;;;;4.75;2.45;;;;;;;25.84;46.36;97489.00;2080653;28;20203;-67
2023/09/04 10:27:16;;;;;;;4.32;2.80;;;;;;;25.34;47.07;97484.69;2082295;28;20306;-67
2023/09/04 10:28:27;;;;;;;4.28;2.75;;;;;;;25.13;47.94;97477.66;2084370;28;20304;-67
2023/09/04 10:29:56;;;;;;;5.45;2.42;;;;;;;24.89;48.70;97473.56;2080410;28;20213;-67
2023/09/04 10:31:00;;;;;;;5.35;3.20;;;;;;;25.10;48.24;97478.78;2080153;28;20575;-67
2023/09/04 10:32:02;;;;;;;4.97;2.38;;;;;;;25.61;47.54;97469.78;2081181;28;20260;-68
2023/09/04 10:33:04;;;;;;;5.18;2.65;;;;;;;25.76;47.73;97473.69;2081577;28;20241;-67
2023/09/04 10:34:07;;;;;;;3.97;2.50;;;;;;;26.51;46.57;97470.19;2083456;28;20197;-67
2023/09/04 10:35:09;;;;;;;6.30;2.63;;;;;;;27.17;45.72;97477.13;2080772;28;20542;-67
2023/09/04 10:36:11;;;;;;;5.80;2.30;;;;;;;27.98;44.64;97471.72;2087849;28;20224;-67
2023/09/04 10:37:12;;;;;;;6.13;2.75;;;;;;;27.94;44.05;97467.69;2080742;28;20225;-67
2023/09/04 10:38:14;;;;;;;11.50;2.83;;;;;;;27.93;44.23;97468.69;2080875;28;20568;-68
2023/09/04 10:39:16;;;;;;;3.90;2.50;;;;;;;28.97;43.06;97464.13;2082332;28;20197;-67
2023/09/04 10:40:18;;;;;;;11.48;3.03;;;;;;;28.56;43.53;97464.00;2079398;28;20227;-67
2023/09/04 10:41:20;;;;;;;8.25;3.13;;;;;;;29.40;41.54;97464.03;2082137;28;20206;-68
2023/09/04 10:42:27;;;;;;;6.50;2.45;;;;;;;27.20;44.39;97465.28;2079642;28;20208;-67
2023/09/04 10:43:38;;;;;;;4.13;2.38;;;;;;;27.30;45.55;97475.88;2080466;28;20616;-68
2023/09/04 10:44:48;;;;;;;4.97;2.63;;;;;;;27.42;46.01;97476.53;2081528;28;20197;-67
2023/09/04 10:46:09;;;;;;;7.35;2.50;;;;;;;26.94;45.38;97459.81;2080708;28;20564;-67
2023/09/04 10:47:10;;;;;;;3.85;2.25;;;;;;;27.45;45.27;97466.34;2080788;28;20185;-67
2023/09/04 10:48:12;;;;;;;3.85;2.22;;;;;;;27.33;46.19;97460.34;2076485;28;20218;-68
2023/09/04 10:49:29;;;;;;;7.80;2.70;;;;;;;29.24;43.92;97464.81;2079066;28;20196;-68
2023/09/04 10:50:35;;;;;;;3.80;2.50;;;;;;;27.40;44.12;97457.94;2081529;28;20200;-67
2023/09/04 10:51:37;;;;;;;5.72;2.30;;;;;;;27.72;43.20;97475.25;2081151;28;20711;-68
2023/09/04 10:52:42;;;;;;;4.80;2.63;;;;;;;28.57;41.20;97463.81;2080966;28;20232;-67
2023/09/04 10:53:44;;;;;;;9.73;2.40;;;;;;;29.15;41.17;97463.97;2084290;28;20637;-67
2023/09/04 10:54:45;;;;;;;2.85;1.90;;;;;;;28.88;41.13;97462.44;2083254;28;20656;-66
2023/09/04 10:56:10;;;;;;;4.32;2.40;;;;;;;30.58;39.58;97457.25;2081902;28;20204;-66
2023/09/04 10:57:12;;;;;;;3.58;2.05;;;;;;;31.10;38.86;97451.22;2079668;28;20606;-66
2023/09/04 10:58:14;;;;;;;6.25;2.47;;;;;;;31.17;38.04;97464.00;2083714;28;20311;-66
2023/09/04 10:59:15;;;;;;;6.03;2.20;;;;;;;29.17;41.25;97449.34;2074830;28;20262;-68
2023/09/04 11:00:37;;;;;;;4.10;2.50;;;;;;;28.29;41.41;97456.00;2081497;28;20251;-67
2023/09/04 11:01:39;;;;;;;3.90;2.70;;;;;;;28.40;42.32;97459.38;2077081;28;20200;-66
2023/09/04 11:02:41;;;;;;;6.30;2.40;;;;;;;30.00;39.91;97456.59;2080336;28;20193;-66
2023/09/04 11:03:43;;;;;;;5.00;2.17;;;;;;;29.83;39.86;97458.41;2084625;28;20192;-66
2023/09/04 11:04:45;;;;;;;4.38;2.20;;;;;;;29.48;40.59;97450.56;2084325;28;20208;-69
2023/09/04 11:06:03;;;;;;;6.30;2.50;;;;;;;29.64;40.84;97447.03;2082067;28;20773;-67
2023/09/04 11:07:19;;;;;;;12.82;2.30;;;;;;;30.64;40.18;97447.59;2082858;28;20672;-67
2023/09/04 11:08:31;;;;;;;6.18;2.70;;;;;;;31.47;38.94;97450.63;2082818;28;20223;-67
2023/09/04 11:09:32;;;;;;;5.70;2.50;;;;;;;32.18;37.08;97439.47;2084389;28;20287;-68
2023/09/04 11:10:36;;;;;;;12.67;2.87;;;;;;;30.56;38.24;97441.25;2075957;28;20439;-67
2023/09/04 11:11:38;;;;;;;7.77;3.13;;;;;;;29.88;39.27;97443.47;2081344;28;20902;-67
2023/09/04 11:12:43;;;;;;;6.90;2.03;;;;;;;29.12;39.92;97448.19;2080930;28;20427;-67
2023/09/04 11:13:45;;;;;;;5.03;2.47;;;;;;;28.95;39.60;97442.78;2082013;28;20428;-67
2023/09/04 11:14:51;;;;;;;4.80;2.40;;;;;;;28.22;42.00;97446.88;2082497;28;21007;-66
2023/09/04 11:15:56;;;;;;;4.55;2.40;;;;;;;28.57;41.54;97446.84;2083707;28;20425;-67
2023/09/04 11:17:02;;;;;;;9.00;2.78;;;;;;;28.52;41.02;97444.69;2077687;28;20255;-67
2023/09/04 11:18:13;;;;;;;4.97;2.25;;;;;;;28.50;40.90;97439.44;2076719;28;20316;-67
2023/09/04 11:19:16;;;;;;;29.48;3.28;;;;;;;28.94;41.59;97441.09;2078485;28;20243;-66
2023/09/04 11:20:24;;;;;;;27.00;3.72;;;;;;;29.40;41.04;97437.13;2080159;28;20213;-68
2023/09/04 11:21:30;;;;;;;7.68;2.65;;;;;;;30.13;39.43;97432.63;2084242;28;20240;-68
2023/09/04 11:22:33;;;;;;;8.60;2.45;;;;;;;30.97;38.04;97429.38;2082544;28;20307;-67
2023/09/04 11:23:35;;;;;;;6.30;2.33;;;;;;;28.65;40.26;97426.22;2076986;28;20274;-68
2023/09/04 11:24:36;;;;;;;8.25;2.40;;;;;;;28.28;40.87;97429.31;2080495;28;20496;-68
2023/09/04 11:25:38;;;;;;;6.55;2.83;;;;;;;28.80;40.31;97415.72;2084080;28;20205;-67
2023/09/04 11:26:39;;;;;;;4.82;3.13;;;;;;;30.45;38.81;97415.50;2082384;28;20197;-67
2023/09/04 11:27:43;;;;;;;9.70;2.65;;;;;;;30.61;38.37;97419.16;2079068;28;20200;-67
2023/09/04 11:28:44;;;;;;;5.28;2.30;;;;;;;30.13;38.02;97414.66;2083944;28;20554;-68
2023/09/04 11:29:49;;;;;;;21.47;3.50;;;;;;;30.46;37.81;97408.25;2081302;28;20199;-67
2023/09/04 11:30:59;;;;;;;5.73;2.73;;;;;;;28.19;40.42;97423.06;2085953;28;20446;-67
2023/09/04 11:32:01;;;;;;;4.43;2.47;;;;;;;28.09;41.00;97417.81;2081542;28;20430;-67
2023/09/04 11:33:12;;;;;;;7.25;2.85;;;;;;;28.61;41.18;97419.50;2078794;28;20654;-68
2023/09/04 11:34:21;;;;;;;7.05;2.90;;;;;;;27.98;41.62;97418.06;2081921;28;20219;-68
2023/09/04 11:35:22;;;;;;;6.03;2.15;;;;;;;27.47;40.81;97424.13;2081190;28;20224;-68
2023/09/04 11:36:25;;;;;;;3.90;2.35;;;;;;;27.18;41.71;97408.28;2079857;28;20203;-67
2023/09/04 11:37:32;;;;;;;9.65;2.70;;;;;;;28.14;41.16;97412.81;2082285;28;20196;-68
2023/09/04 11:38:34;;;;;;;5.53;2.63;;;;;;;28.33;40.98;97413.56;2080973;28;20225;-68
2023/09/04 11:39:49;;;;;;;7.55;3.05;;;;;;;29.40;40.14;97407.56;2083278;28;20789;-68
2023/09/04 11:40:51;;;;;;;5.88;2.28;;;;;;;30.18;39.07;97407.88;2081301;28;20254;-68
2023/09/04 11:41:53;;;;;;;7.47;3.00;;;;;;;28.94;38.76;97414.22;2080237;28;20206;-68
2023/09/04 11:42:54;;;;;;;18.08;2.53;;;;;;;28.13;40.50;97418.34;2081859;28;20256;-68
2023/09/04 11:43:56;;;;;;;12.52;2.10;;;;;;;27.82;41.10;97406.25;2083537;28;20216;-67
2023/09/04 11:44:57;;;;;;;6.30;3.10;;;;;;;28.62;40.91;97417.66;2084521;28;20196;-68
2023/09/04 11:45:59;;;;;;;29.50;3.33;;;;;;;29.53;38.73;97402.47;2079291;28;20676;-68
2023/09/04 11:47:02;;;;;;;14.52;3.30;;;;;;;29.80;37.75;97405.78;2081341;28;20193;-68
2023/09/04 11:48:04;;;;;;;16.65;3.15;;;;;;;28.26;39.54;97421.41;2079246;28;20244;-68
2023/09/04 11:49:06;;;;;;;6.95;3.47;;;;;;;27.61;40.77;97414.66;2080343;28;20201;-69
2023/09/04 11:50:14;;;;;;;4.65;2.88;;;;;;;27.93;40.46;97407.78;2082030;28;20243;-68
2023/09/04 11:51:16;;;;;;;4.43;2.78;;;;;;;27.93;41.13;97401.59;2083196;28;20208;-68
2023/09/04 11:52:25;;;;;;;5.03;2.42;;;;;;;28.12;39.28;97411.28;2080649;28;20678;-68
2023/09/04 11:53:26;;;;;;;4.78;2.45;;;;;;;27.68;40.95;97401.44;2080364;28;20319;-68
2023/09/04 11:54:31;;;;;;;23.38;4.18;;;;;;;29.36;39.73;97398.97;2079301;28;20212;-68
2023/09/04 11:55:33;;;;;;;7.80;2.50;;;;;;;29.36;37.84;97393.59;2081107;28;20240;-68
2023/09/04 11:56:36;;;;;;;11.05;2.53;;;;;;;28.35;39.08;97395.41;2081262;28;20288;-68